Time;durP1;ratioP1;P1;durP2;ratioP2;P2;SDS_P1;SDS_P2;PMS_P1;PMS_P2;Temp;Humidity;BMP_temperature;BMP_pressure;BME280_temperature;BME280_humidity;BME280_pressure;Samples;Min_cycle;Max_cycle;Signal;HPM_P1;HPM_P2
2022/06/16 00:07:38;;;;;;;3.03;2.77;;;;;;;16.79;61.63;94677.94;2621112;46;20260;-79
2022/06/16 00:58:56;;;;;;;5.23;3.83;;;;;;;16.29;63.07;94665.28;2621299;46;20191;-81
2022/06/16 03:17:31;;;;;;;;;;;;;;;;;;;;;
2022/06/16 03:20:13;;;;;;;2.30;2.20;;;;;;;18.37;59.20;94840.22;2621738;54;20172;-79
2022/06/16 03:23:08;;;;;;;2.87;2.70;;;;;;;17.05;59.76;94635.25;2621838;54;20163;-79
2022/06/16 03:25:46;;;;;;;2.00;1.90;;;;;;;19.07;59.71;94859.19;2621749;54;20202;-80
2022/06/16 03:28:28;;;;;;;3.00;2.80;;;;;;;19.50;58.37;94902.41;2622114;47;20183;-80
2022/06/16 03:31:02;;;;;;;2.73;2.53;;;;;;;18.82;58.40;94866.28;2621958;54;20176;-78
2022/06/16 03:33:52;;;;;;;2.97;2.60;;;;;;;17.51;58.53;94720.00;2622046;46;20174;-79
2022/06/16 03:36:43;;;;;;;2.53;2.33;;;;;;;18.85;60.33;94907.91;2622175;54;20172;-84
2022/06/16 03:39:21;;;;;;;3.10;2.80;;;;;;;17.68;58.49;94658.56;2622476;54;20526;-84
2022/06/16 03:41:59;;;;;;;2.87;2.67;;;;;;;17.35;58.82;94680.56;2622239;46;20950;-79
2022/06/16 03:44:28;;;;;;;2.90;2.70;;;;;;;17.27;59.75;94714.81;2622268;54;20251;-78
2022/06/16 03:46:57;;;;;;;3.43;2.80;;;;;;;18.87;59.84;94904.31;2621466;54;20888;-78
2022/06/16 03:52:10;;;;;;;3.27;3.07;;;;;;;17.90;62.54;94904.38;2621062;38;20540;-76
2022/06/16 03:54:39;;;;;;;3.60;3.30;;;;;;;17.35;64.21;94887.41;2621037;54;20164;-78
2022/06/16 03:57:09;;;;;;;3.53;3.23;;;;;;;17.08;65.83;94904.97;2621643;46;20165;-78
2022/06/16 03:59:38;;;;;;;3.13;2.93;;;;;;;16.30;66.98;94826.03;2622423;54;20152;-77
2022/06/16 04:02:07;;;;;;;4.10;3.80;;;;;;;16.93;67.49;94895.50;2621830;47;20164;-82
2022/06/16 04:04:36;;;;;;;4.03;3.57;;;;;;;16.80;67.82;94914.66;2621723;54;20143;-82
2022/06/16 04:07:08;;;;;;;6.83;4.07;;;;;;;16.37;70.34;94890.47;2621568;54;20168;-82
2022/06/16 04:09:42;;;;;;;3.93;3.63;;;;;;;16.12;70.86;94895.09;2621907;47;20164;-84
2022/06/16 04:12:12;;;;;;;3.73;3.43;;;;;;;16.35;71.08;94894.00;2621573;47;20191;-84
2022/06/16 04:14:40;;;;;;;4.37;3.93;;;;;;;15.95;72.16;94887.69;2622360;47;20676;-87
2022/06/16 04:17:10;;;;;;;3.90;3.60;;;;;;;15.95;71.25;94882.72;2619791;54;20288;-86
2022/06/16 04:20:11;;;;;;;4.43;3.90;;;;;;;15.47;72.80;94871.16;2618279;54;20145;-86
2022/06/16 04:22:27;;;;;;;4.37;4.00;;;;;;;15.51;76.24;94911.22;2618541;47;20188;-86
2022/06/16 04:24:59;;;;;;;4.27;3.87;;;;;;;14.81;74.56;94794.41;2618877;47;20161;-85
2022/06/16 04:27:28;;;;;;;4.60;4.17;;;;;;;15.33;73.81;94836.69;2618543;54;20168;-78
2022/06/16 04:29:56;;;;;;;4.13;3.83;;;;;;;15.73;75.09;94915.88;2617872;47;20171;-77
2022/06/16 04:32:29;;;;;;;4.70;3.47;;;;;;;15.25;75.39;94845.84;2618038;47;20160;-77
2022/06/16 04:35:02;;;;;;;4.13;3.57;;;;;;;16.05;75.47;94913.56;2618380;47;20168;-85
2022/06/16 04:37:31;;;;;;;5.00;4.50;;;;;;;16.21;73.56;94904.50;2618995;47;20172;-85
2022/06/16 04:40:03;;;;;;;4.33;3.90;;;;;;;16.77;72.17;94901.75;2619443;54;20171;-79
2022/06/16 04:42:31;;;;;;;4.47;4.17;;;;;;;17.37;69.29;94872.34;2618223;54;20280;-77
2022/06/16 04:45:13;;;;;;;4.10;3.80;;;;;;;17.68;67.32;94868.38;2618604;47;20188;-86
2022/06/16 04:47:45;;;;;;;4.23;3.83;;;;;;;18.54;66.23;94912.00;2619144;54;20145;-86
2022/06/16 04:50:18;;;;;;;4.83;3.70;;;;;;;18.87;64.19;94916.50;2618605;54;20157;-78
2022/06/16 04:52:47;;;;;;;4.07;3.47;;;;;;;18.90;64.55;94906.47;2618012;54;20195;-78
2022/06/16 04:55:20;;;;;;;3.03;2.77;;;;;;;19.24;61.90;94899.44;2617243;47;20272;-79
2022/06/16 04:57:48;;;;;;;8.87;3.77;;;;;;;19.43;61.68;94878.66;2618149;54;20191;-78
2022/06/16 05:03:04;;;;;;;3.60;3.30;;;;;;;20.38;59.19;94918.28;2618121;46;20405;-81
2022/06/16 05:05:36;;;;;;;3.42;3.22;;;;;;;20.63;57.99;94909.66;2617368;54;20161;-82
2022/06/16 05:08:08;;;;;;;4.00;3.70;;;;;;;19.57;57.89;94748.72;2616689;47;20165;-82
2022/06/16 05:10:56;;;;;;;3.45;3.15;;;;;;;19.14;57.08;94679.78;2617618;47;20176;-81
2022/06/16 05:14:05;;;;;;;3.75;3.45;;;;;;;21.06;56.58;94913.09;2617910;47;20751;-81
2022/06/16 05:36:34;;;;;;;6.60;5.37;;;;;;;20.21;56.68;94747.91;2616358;39;20776;-75
2022/06/16 05:42:13;;;;;;;5.45;4.93;;;;;;;19.93;55.05;94681.88;2614329;46;20160;-78
2022/06/16 06:31:55;;;;;;;;;;;;;;;;;;;;;
